createdAt,value
2016-10-29T10:12:42.069Z,180
2016-10-29T10:13:07.806Z,180
2016-10-29T10:13:33.366Z,180
2016-10-29T10:13:58.929Z,180
2016-10-29T10:14:24.490Z,180
2016-10-29T10:14:50.059Z,185
2016-10-29T10:15:15.608Z,185
2016-10-29T10:15:41.267Z,185
2016-10-29T10:16:06.829Z,185
2016-10-29T10:16:32.412Z,185
2016-10-29T10:16:57.980Z,185
2016-10-29T10:17:23.555Z,185
2016-10-29T10:17:49.105Z,185
2016-10-29T10:18:14.647Z,180
2016-10-29T10:18:40.216Z,175
2016-10-29T10:19:05.828Z,185
2016-10-29T10:19:31.422Z,145
2016-10-29T10:19:56.990Z,170
2016-10-29T10:20:22.531Z,180
2016-10-29T10:20:48.136Z,155
2016-10-29T10:21:13.688Z,165
2016-10-29T10:21:39.246Z,155
2016-10-29T10:22:04.812Z,180
2016-10-29T10:22:30.383Z,165
2016-10-29T10:22:55.942Z,175
2016-10-29T10:23:21.627Z,170
2016-10-29T10:23:47.188Z,155
2016-10-29T10:24:12.771Z,150
2016-10-29T10:24:38.440Z,145
2016-10-29T10:25:03.987Z,150
2016-10-29T10:25:29.627Z,170
2016-10-29T10:25:55.198Z,175
2016-10-29T10:26:20.903Z,165
2016-10-29T10:26:46.479Z,165
2016-10-29T10:27:12.058Z,175
2016-10-29T10:27:37.663Z,180
2016-10-29T10:28:03.216Z,190
2016-10-29T10:28:28.792Z,205
2016-10-29T10:28:54.419Z,190
2016-10-29T10:29:19.983Z,200
2016-10-29T10:29:45.544Z,180
2016-10-29T10:30:11.107Z,195
2016-10-29T10:30:36.694Z,195
2016-10-29T10:31:02.239Z,175
2016-10-29T10:31:27.878Z,200
2016-10-29T10:31:53.404Z,165
2016-10-29T10:32:18.979Z,165
2016-10-29T10:33:43.062Z,165
2016-10-29T10:34:08.741Z,175
2016-10-29T10:34:34.276Z,185
2016-10-29T10:34:59.875Z,170
2016-10-29T10:35:25.437Z,205
2016-10-29T10:35:51.067Z,185
2016-10-29T10:36:16.628Z,200
2016-10-29T10:36:42.181Z,195
2016-10-29T10:37:07.739Z,190
2016-10-29T10:37:33.311Z,200
2016-10-29T10:37:58.855Z,170
2016-10-29T10:38:24.490Z,205
2016-10-29T10:38:50.048Z,205
2016-10-29T10:39:15.599Z,220
2016-10-29T10:39:41.168Z,220
2016-10-29T10:40:06.752Z,220
2016-10-29T10:40:32.345Z,225
2016-10-29T10:40:58.030Z,220
2016-10-29T10:41:23.603Z,225
2016-10-29T10:41:49.162Z,175
2016-10-29T10:42:14.736Z,215
2016-10-29T10:42:40.315Z,145
2016-10-29T10:43:05.872Z,145
2016-10-29T10:43:31.449Z,145
2016-10-29T10:43:57.027Z,145
2016-10-29T10:44:22.597Z,125
2016-10-29T10:44:48.156Z,120
2016-10-29T10:45:13.889Z,105
2016-10-29T10:45:39.434Z,85
2016-10-29T10:46:05.122Z,100
2016-10-29T10:46:30.673Z,80
2016-10-29T10:46:56.248Z,105
2016-10-29T10:47:21.800Z,85
2016-10-29T10:47:47.481Z,80
2016-10-29T10:48:13.059Z,105
2016-10-29T10:48:38.613Z,75
2016-10-29T10:49:04.179Z,75
2016-10-29T10:49:29.770Z,70
2016-10-29T10:49:55.356Z,75
2016-10-29T10:50:20.900Z,70
2016-10-29T10:50:46.469Z,70
2016-10-29T10:51:12.059Z,80
2016-10-29T10:51:37.634Z,75
2016-10-29T10:52:03.214Z,95
2016-10-29T10:52:28.784Z,80
2016-10-29T10:52:54.384Z,105
2016-10-29T10:53:19.966Z,120
2016-10-29T10:53:45.528Z,115
2016-10-29T10:54:11.093Z,120
2016-10-29T10:54:36.660Z,115
2016-10-29T10:55:02.224Z,120
2016-10-29T10:55:27.823Z,120
2016-10-29T10:55:53.382Z,120
2016-10-29T10:56:18.949Z,125
2016-10-29T10:56:44.647Z,125
2016-10-29T10:57:10.219Z,125
2016-10-29T10:57:35.765Z,130
2016-10-29T10:58:01.333Z,130
2016-10-29T10:58:26.879Z,135
2016-10-29T10:58:52.480Z,135
2016-10-29T10:59:18.005Z,135
2016-10-29T10:59:43.573Z,140
2016-10-29T11:00:09.162Z,140
2016-10-29T11:00:34.709Z,140
2016-10-29T11:01:00.284Z,140
2016-10-29T11:01:25.880Z,140
2016-10-29T11:01:51.473Z,140
2016-10-29T11:02:17.029Z,140
2016-10-29T11:02:42.602Z,140
2016-10-29T11:03:08.346Z,140
2016-10-29T11:03:33.909Z,140
2016-10-29T11:03:59.479Z,140
2016-10-29T11:04:25.036Z,140
2016-10-29T11:04:50.601Z,140
2016-10-29T11:05:16.207Z,135
2016-10-29T11:05:41.770Z,135
2016-10-29T11:06:07.355Z,130
2016-10-29T11:06:32.924Z,130
2016-10-29T11:06:58.468Z,125
2016-10-29T11:07:24.050Z,110
2016-10-29T11:07:49.598Z,120
2016-10-29T11:08:15.158Z,120
2016-10-29T11:08:40.760Z,85
2016-10-29T11:09:06.332Z,85
2016-10-29T11:09:31.886Z,75
2016-10-29T11:09:57.455Z,60
2016-10-29T11:10:23.018Z,70
2016-10-29T11:10:48.581Z,70
2016-10-29T11:11:14.228Z,75
2016-10-29T11:11:39.777Z,65
2016-10-29T11:12:05.353Z,60
2016-10-29T11:12:30.933Z,60
2016-10-29T11:12:56.498Z,70
2016-10-29T11:13:22.104Z,60
2016-10-29T11:13:47.669Z,85
2016-10-29T11:14:13.271Z,75
2016-10-29T11:14:38.833Z,90
2016-10-29T11:15:04.403Z,90
2016-10-29T11:15:29.955Z,90
2016-10-29T11:15:55.558Z,80
2016-10-29T11:16:21.111Z,95
2016-10-29T11:16:46.676Z,95
2016-10-29T11:17:12.271Z,105
2016-10-29T11:17:37.847Z,100
2016-10-29T11:18:03.421Z,105
2016-10-29T11:18:28.961Z,125
2016-10-29T11:18:54.514Z,125
2016-10-29T11:21:01.270Z,115
2016-10-29T11:21:26.841Z,115
2016-10-29T11:21:52.475Z,110
2016-10-29T11:22:18.020Z,115
2016-10-29T11:22:43.587Z,115
2016-10-29T11:23:09.199Z,105
2016-10-29T11:23:34.756Z,110
2016-10-29T11:24:00.313Z,110
2016-10-29T11:24:25.908Z,110
2016-10-29T11:24:51.451Z,105
2016-10-29T11:25:17.012Z,105
2016-10-29T11:25:42.609Z,105
2016-10-29T11:26:08.193Z,105
2016-10-29T11:26:33.737Z,100
2016-10-29T11:26:59.370Z,95
2016-10-29T11:27:24.831Z,90
2016-10-29T11:27:50.405Z,90
2016-10-29T11:28:15.989Z,90
2016-10-29T11:28:41.535Z,90
2016-10-29T11:29:07.109Z,85
2016-10-29T11:29:32.667Z,90
2016-10-29T11:29:58.222Z,80
2016-10-29T11:30:23.815Z,85
2016-10-29T11:30:49.352Z,75
2016-10-29T11:31:14.907Z,75
2016-10-29T11:31:40.564Z,75
2016-10-29T11:32:06.142Z,75
2016-10-29T11:32:31.692Z,75
2016-10-29T11:32:57.381Z,70
2016-10-29T11:33:22.936Z,75
2016-10-29T11:33:48.519Z,70
2016-10-29T11:34:14.092Z,70
2016-10-29T11:34:39.656Z,65
2016-10-29T11:35:05.235Z,70
2016-10-29T11:35:30.791Z,65
2016-10-29T11:35:56.342Z,70
2016-10-29T11:36:21.981Z,65
2016-10-29T11:36:47.577Z,65
2016-10-29T11:37:13.139Z,70
2016-10-29T11:37:38.714Z,70
2016-10-29T11:38:04.298Z,70
2016-10-29T11:38:29.904Z,70
2016-10-29T11:39:38.202Z,55
2016-10-29T11:40:03.764Z,50
2016-10-29T11:40:29.372Z,50
2016-10-29T11:40:54.931Z,50
2016-10-29T11:41:20.486Z,50
2016-10-29T11:41:46.065Z,55
2016-10-29T11:42:11.635Z,60
2016-10-29T11:42:37.168Z,60
2016-10-29T11:43:02.733Z,60
2016-10-29T11:43:28.285Z,60
2016-10-29T11:43:53.834Z,60
2016-10-29T11:44:19.407Z,60
2016-10-29T11:44:44.969Z,65
2016-10-29T11:45:10.526Z,65
2016-10-29T11:45:36.096Z,65
2016-10-29T11:46:01.678Z,65
2016-10-29T11:46:27.231Z,60
2016-10-29T11:46:52.909Z,55
2016-10-29T11:47:18.472Z,55
2016-10-29T11:47:44.125Z,50
2016-10-29T11:48:09.699Z,55
2016-10-29T11:48:35.266Z,50
2016-10-29T11:49:00.822Z,55
2016-10-29T11:49:26.383Z,50
2016-10-29T11:49:51.960Z,50
2016-10-29T11:50:17.510Z,50
2016-10-29T11:50:43.056Z,50
2016-10-29T11:51:08.625Z,50
2016-10-29T11:51:34.203Z,50
2016-10-29T11:51:59.826Z,50
2016-10-29T11:52:25.395Z,50
2016-10-29T11:52:50.938Z,50
2016-10-29T11:53:16.517Z,50
2016-10-29T11:53:42.080Z,50
2016-10-29T11:54:07.696Z,50
2016-10-29T11:54:33.254Z,50
2016-10-29T11:54:58.818Z,50
2016-10-29T11:55:24.453Z,50
2016-10-29T11:55:50.018Z,55
2016-10-29T11:56:15.591Z,50
2016-10-29T11:56:41.149Z,50
2016-10-29T11:57:06.727Z,55
2016-10-29T11:57:32.288Z,55
2016-10-29T11:57:57.853Z,55
2016-10-29T11:58:23.434Z,60
2016-10-29T11:58:49.000Z,60
2016-10-29T11:59:14.668Z,60
2016-10-29T11:59:40.260Z,60
2016-10-29T12:00:05.828Z,60
2016-10-29T12:00:31.477Z,65
2016-10-29T12:00:57.025Z,60
2016-10-29T12:01:22.600Z,55
2016-10-29T12:01:48.143Z,55
2016-10-29T12:02:13.699Z,60
2016-10-29T12:02:39.271Z,60
2016-10-29T12:03:04.843Z,60
2016-10-29T12:03:30.400Z,65
2016-10-29T12:03:55.996Z,75
2016-10-29T12:04:21.563Z,80
2016-10-29T12:04:47.149Z,85
2016-10-29T12:05:12.712Z,80
2016-10-29T12:05:38.276Z,80
2016-10-29T12:06:03.817Z,80
2016-10-29T12:06:29.364Z,80
2016-10-29T12:06:54.950Z,80
2016-10-29T12:07:20.512Z,80
2016-10-29T12:07:46.180Z,75
2016-10-29T12:08:11.755Z,75
2016-10-29T12:08:37.439Z,75
2016-10-29T12:09:02.996Z,65
2016-10-29T12:09:28.575Z,65
2016-10-29T12:09:54.149Z,65
2016-10-29T12:10:19.707Z,70
2016-10-29T12:10:45.410Z,70
2016-10-29T12:11:10.977Z,75
2016-10-29T12:11:36.548Z,75
2016-10-29T12:12:02.221Z,95
2016-10-29T12:12:27.855Z,90
2016-10-29T12:12:53.414Z,90
2016-10-29T12:13:18.984Z,90
2016-10-29T12:13:44.631Z,95
2016-10-29T12:14:10.223Z,85
2016-10-29T12:14:35.802Z,85
2016-10-29T12:15:01.377Z,85
2016-10-29T12:15:27.014Z,85
2016-10-29T12:15:52.582Z,85
2016-10-29T12:16:18.221Z,90
2016-10-29T12:16:43.799Z,90
2016-10-29T12:17:09.385Z,100
2016-10-29T12:17:35.033Z,110
2016-10-29T12:18:00.600Z,120
2016-10-29T12:18:26.200Z,120
2016-10-29T12:18:51.739Z,130
2016-10-29T12:19:17.313Z,120
2016-10-29T12:19:42.871Z,110
2016-10-29T12:20:08.414Z,115
2016-10-29T12:20:33.963Z,110
2016-10-29T12:20:59.518Z,110
2016-10-29T12:21:25.196Z,105
2016-10-29T12:22:48.942Z,85
2016-10-29T12:23:14.522Z,85
2016-10-29T12:23:40.070Z,85
2016-10-29T12:24:05.631Z,80
2016-10-29T12:24:31.219Z,80
2016-10-29T12:24:56.770Z,75
2016-10-29T12:25:22.432Z,75
2016-10-29T12:25:47.978Z,75
2016-10-29T12:26:13.540Z,80
2016-10-29T12:26:39.081Z,80
2016-10-29T12:27:04.767Z,85
2016-10-29T12:27:30.316Z,90
2016-10-29T12:27:55.884Z,85
2016-10-29T12:28:21.433Z,80
2016-10-29T12:28:47.000Z,75
2016-10-29T12:29:12.605Z,80
2016-10-29T12:29:38.162Z,80
2016-10-29T12:30:03.759Z,75
2016-10-29T12:30:29.418Z,75
2016-10-29T12:30:55.003Z,70
2016-10-29T12:31:20.545Z,70
2016-10-29T12:31:46.237Z,65
2016-10-29T12:32:11.815Z,60
2016-10-29T12:32:37.374Z,60
2016-10-29T12:33:02.914Z,55
2016-10-29T12:33:28.496Z,55
2016-10-29T12:33:54.056Z,55
2016-10-29T12:34:19.639Z,55
2016-10-29T12:34:45.184Z,55
2016-10-29T12:35:10.720Z,55
2016-10-29T12:35:36.255Z,55
2016-10-29T12:36:01.901Z,55
2016-10-29T12:36:27.456Z,55
2016-10-29T12:36:53.011Z,55
2016-10-29T12:37:18.563Z,55
2016-10-29T12:37:44.182Z,55
2016-10-29T12:38:09.822Z,55
2016-10-29T12:38:35.375Z,55
2016-10-29T12:39:00.975Z,55
2016-10-29T12:39:26.595Z,50
2016-10-29T12:39:52.164Z,50
2016-10-29T12:40:17.735Z,50
2016-10-29T12:40:43.385Z,50
2016-10-29T12:41:08.939Z,50
2016-10-29T12:41:34.479Z,50
2016-10-29T12:42:00.072Z,60
2016-10-29T12:42:25.623Z,55
2016-10-29T12:42:51.177Z,55
2016-10-29T12:43:16.752Z,55
2016-10-29T12:43:42.302Z,60
2016-10-29T12:44:07.879Z,55
2016-10-29T12:44:33.532Z,55
2016-10-29T12:44:59.151Z,60
2016-10-29T12:45:24.715Z,70
2016-10-29T12:45:50.251Z,80
2016-10-29T12:46:15.808Z,85
2016-10-29T12:46:41.387Z,70
2016-10-29T12:47:06.949Z,80
2016-10-29T12:47:32.510Z,80
2016-10-29T12:47:58.074Z,95
2016-10-29T12:48:23.733Z,100
2016-10-29T12:48:49.291Z,110
2016-10-29T12:49:14.865Z,100
2016-10-29T12:49:40.453Z,105
2016-10-29T12:50:06.089Z,140
2016-10-29T12:50:31.654Z,140
2016-10-29T12:50:57.212Z,145
2016-10-29T12:51:22.780Z,115
2016-10-29T12:51:48.328Z,140
2016-10-29T12:52:13.898Z,95
2016-10-29T12:52:39.439Z,70
2016-10-29T12:53:05.101Z,60
2016-10-29T12:53:30.733Z,55
2016-10-29T12:53:56.325Z,55
2016-10-29T12:54:21.908Z,55
2016-10-29T12:54:47.464Z,60
2016-10-29T12:55:12.997Z,85
2016-10-29T12:55:38.571Z,75
2016-10-29T12:56:04.239Z,75
2016-10-29T12:56:29.795Z,70
2016-10-29T12:56:55.386Z,65
2016-10-29T12:57:20.964Z,50
2016-10-29T12:57:46.550Z,55
2016-10-29T12:58:12.123Z,45
2016-10-29T12:58:37.692Z,50
2016-10-29T12:59:03.281Z,50
2016-10-29T12:59:28.820Z,50
2016-10-29T12:59:54.372Z,55
2016-10-29T13:00:19.928Z,60
2016-10-29T13:00:45.489Z,65
2016-10-29T13:01:11.076Z,65
2016-10-29T13:01:36.661Z,70
2016-10-29T13:02:02.209Z,70
2016-10-29T13:02:27.856Z,65
2016-10-29T13:02:53.411Z,60
2016-10-29T13:03:18.973Z,60
2016-10-29T13:03:44.528Z,60
2016-10-29T13:04:10.079Z,55
2016-10-29T13:04:35.645Z,45
2016-10-29T13:05:01.192Z,45
2016-10-29T13:05:26.729Z,50
2016-10-29T13:05:52.439Z,55
2016-10-29T13:06:18.004Z,55
2016-10-29T13:06:43.573Z,55
2016-10-29T13:07:09.161Z,55
2016-10-29T13:07:34.779Z,50
2016-10-29T13:08:00.350Z,50
2016-10-29T13:08:25.908Z,45
2016-10-29T13:08:51.492Z,45
2016-10-29T13:09:17.176Z,40
2016-10-29T13:09:42.754Z,35
2016-10-29T13:10:08.290Z,35
2016-10-29T13:10:33.863Z,40
2016-10-29T13:10:59.395Z,35
2016-10-29T13:11:24.955Z,35
2016-10-29T13:11:50.517Z,35
2016-10-29T13:12:16.096Z,40
2016-10-29T13:12:41.795Z,45
2016-10-29T13:13:07.348Z,50
2016-10-29T13:13:32.903Z,50
2016-10-29T13:13:58.455Z,45
2016-10-29T13:14:24.008Z,40
2016-10-29T13:14:49.590Z,45
2016-10-29T13:15:15.153Z,45
2016-10-29T13:15:40.738Z,45
2016-10-29T13:16:06.265Z,50
2016-10-29T13:16:31.830Z,50
2016-10-29T13:16:57.386Z,50
2016-10-29T13:17:22.938Z,45
2016-10-29T13:17:48.510Z,40
2016-10-29T13:18:14.085Z,40
2016-10-29T13:18:39.652Z,40
2016-10-29T13:19:05.259Z,45
2016-10-29T13:19:30.835Z,50
2016-10-29T13:19:56.481Z,55
2016-10-29T13:20:22.099Z,65
2016-10-29T13:20:47.661Z,75
2016-10-29T13:21:13.263Z,75
2016-10-29T13:21:38.959Z,70
2016-10-29T13:22:04.525Z,65
2016-10-29T13:22:30.062Z,60
2016-10-29T13:23:38.474Z,50
2016-10-29T13:24:04.033Z,50
2016-10-29T13:24:29.572Z,50
2016-10-29T13:24:55.132Z,55
2016-10-29T13:25:20.800Z,60
2016-10-29T13:25:46.392Z,65
2016-10-29T13:26:11.964Z,65
2016-10-29T13:26:37.597Z,65
2016-10-29T13:27:03.154Z,65
2016-10-29T13:27:28.742Z,65
2016-10-29T13:27:54.302Z,60
2016-10-29T13:28:19.877Z,60
2016-10-29T13:28:45.446Z,60
2016-10-29T13:29:11.020Z,55
2016-10-29T13:29:36.587Z,55
2016-10-29T13:30:02.139Z,55
2016-10-29T13:30:27.686Z,55
2016-10-29T13:30:53.251Z,55
2016-10-29T13:31:18.852Z,55
2016-10-29T13:31:44.451Z,55
2016-10-29T13:32:10.039Z,55
2016-10-29T13:32:35.606Z,55
2016-10-29T13:33:01.174Z,55
2016-10-29T13:33:26.738Z,55
2016-10-29T13:33:52.335Z,60
2016-10-29T13:34:17.884Z,60
2016-10-29T13:34:43.433Z,65
2016-10-29T13:35:08.960Z,65
2016-10-29T13:35:34.584Z,65
2016-10-29T13:36:00.165Z,65
2016-10-29T13:36:25.721Z,70
2016-10-29T13:36:51.299Z,70
2016-10-29T13:37:16.859Z,70
2016-10-29T13:37:42.417Z,75
2016-10-29T13:38:07.979Z,75
2016-10-29T13:38:33.518Z,80
2016-10-29T13:38:59.094Z,75
2016-10-29T13:39:24.664Z,80
2016-10-29T13:39:50.296Z,90
2016-10-29T13:40:15.840Z,80
2016-10-29T13:40:41.414Z,75
2016-10-29T13:41:07.030Z,70
2016-10-29T13:41:32.662Z,70
2016-10-29T13:41:58.240Z,65
2016-10-29T13:42:23.801Z,55
2016-10-29T13:42:49.399Z,55
2016-10-29T13:43:14.934Z,50
2016-10-29T13:43:40.489Z,45
2016-10-29T13:44:06.081Z,45
2016-10-29T13:44:31.644Z,40
2016-10-29T13:44:57.222Z,40
2016-10-29T13:45:22.853Z,40
2016-10-29T13:45:48.432Z,35
2016-10-29T13:46:13.990Z,35
2016-10-29T13:46:39.633Z,35
2016-10-29T13:47:05.196Z,35
2016-10-29T13:47:30.744Z,35
2016-10-29T13:47:56.310Z,35
2016-10-29T13:48:21.886Z,35
2016-10-29T13:49:45.915Z,35
2016-10-29T13:50:11.475Z,35
2016-10-29T13:50:37.031Z,35
2016-10-29T13:51:02.691Z,40
2016-10-29T13:51:28.270Z,40
2016-10-29T13:51:53.822Z,40
2016-10-29T13:52:19.352Z,40
2016-10-29T13:52:44.931Z,40
2016-10-29T13:53:10.531Z,40
2016-10-29T13:53:36.112Z,40
2016-10-29T13:54:01.674Z,40
2016-10-29T13:54:27.301Z,40
2016-10-29T13:54:52.865Z,40
2016-10-29T13:55:18.432Z,35
2016-10-29T13:55:43.983Z,35
2016-10-29T13:56:09.527Z,40
2016-10-29T13:56:35.102Z,35
2016-10-29T13:57:00.740Z,35
2016-10-29T13:57:26.297Z,40
2016-10-29T13:57:51.850Z,40
2016-10-29T13:58:17.458Z,35
2016-10-29T13:58:43.024Z,35
2016-10-29T13:59:08.586Z,35
2016-10-29T13:59:34.163Z,35
2016-10-29T13:59:59.700Z,35
2016-10-29T14:00:25.265Z,35
2016-10-29T14:00:50.816Z,35
2016-10-29T14:01:16.365Z,40
2016-10-29T14:02:40.059Z,40
2016-10-29T14:03:05.684Z,45
2016-10-29T14:03:31.337Z,40
2016-10-29T14:03:56.876Z,45
2016-10-29T14:04:22.523Z,45
2016-10-29T14:04:48.086Z,45
2016-10-29T14:05:13.646Z,35
2016-10-29T14:05:39.219Z,35
2016-10-29T14:06:04.851Z,40
2016-10-29T14:06:30.416Z,40
2016-10-29T14:06:55.974Z,40
2016-10-29T14:07:21.545Z,50
2016-10-29T14:07:47.091Z,45
2016-10-29T14:08:12.721Z,55
2016-10-29T14:08:38.282Z,45
2016-10-29T14:09:03.827Z,35
2016-10-29T14:09:29.403Z,35
2016-10-29T14:09:54.979Z,35
2016-10-29T14:10:20.545Z,35
2016-10-29T14:10:46.102Z,40
2016-10-29T14:11:11.671Z,45
2016-10-29T14:11:37.247Z,40
2016-10-29T14:12:02.822Z,40
2016-10-29T14:12:28.381Z,40
2016-10-29T14:12:53.937Z,35
2016-10-29T14:13:19.545Z,30
2016-10-29T14:13:45.098Z,30
2016-10-29T14:14:10.674Z,40
2016-10-29T14:14:36.231Z,25
2016-10-29T14:15:01.782Z,25
2016-10-29T14:15:27.355Z,25
2016-10-29T14:15:53.057Z,25
2016-10-29T14:16:18.655Z,25
2016-10-29T14:16:44.193Z,25
2016-10-29T14:17:09.785Z,25
2016-10-29T14:17:35.329Z,30
2016-10-29T14:18:00.874Z,30
2016-10-29T14:18:26.471Z,45
2016-10-29T14:18:52.024Z,40
2016-10-29T14:19:17.592Z,35
2016-10-29T14:19:43.160Z,35
2016-10-29T14:20:08.731Z,35
2016-10-29T14:20:34.343Z,35
2016-10-29T14:20:59.936Z,40
2016-10-29T14:21:25.525Z,40
2016-10-29T14:21:51.087Z,70
2016-10-29T14:22:16.728Z,70
2016-10-29T14:22:42.314Z,65
2016-10-29T14:23:07.872Z,65
2016-10-29T14:23:33.442Z,70
2016-10-29T14:23:59.047Z,65
2016-10-29T14:24:24.624Z,70
2016-10-29T14:24:50.155Z,70
2016-10-29T14:25:15.727Z,70
2016-10-29T14:25:41.342Z,70
2016-10-29T14:26:06.881Z,70
2016-10-29T14:26:32.442Z,70
2016-10-29T14:26:58.010Z,70
2016-10-29T14:27:23.564Z,80
2016-10-29T14:27:49.108Z,80
2016-10-29T14:28:14.704Z,100
2016-10-29T14:28:40.282Z,110
2016-10-29T14:29:05.834Z,110
2016-10-29T14:29:31.390Z,80
2016-10-29T14:29:56.948Z,75
2016-10-29T14:30:22.515Z,50
2016-10-29T14:30:48.094Z,55
2016-10-29T14:31:13.685Z,35
2016-10-29T14:31:39.297Z,70
2016-10-29T14:32:04.840Z,30
2016-10-29T14:32:30.399Z,30
2016-10-29T14:32:55.967Z,25
2016-10-29T14:33:21.717Z,25
2016-10-29T14:33:47.392Z,30
2016-10-29T14:34:12.938Z,25
2016-10-29T14:34:38.504Z,25
2016-10-29T14:35:04.072Z,25
2016-10-29T14:35:29.660Z,25
2016-10-29T14:35:55.245Z,30
2016-10-29T14:36:20.924Z,30
2016-10-29T14:36:46.502Z,30
2016-10-29T14:37:12.055Z,30
2016-10-29T14:37:37.646Z,40
2016-10-29T14:38:03.260Z,85
2016-10-29T14:38:28.906Z,85
2016-10-29T14:38:54.465Z,70
2016-10-29T14:39:20.003Z,30
2016-10-29T14:39:45.581Z,30
2016-10-29T14:40:11.149Z,35
2016-10-29T14:40:36.704Z,50
2016-10-29T14:41:02.439Z,35
2016-10-29T14:41:28.009Z,105
2016-10-29T14:41:53.571Z,70
2016-10-29T14:43:54.869Z,115
2016-10-29T14:44:20.418Z,110
2016-10-29T14:44:46.048Z,115
2016-10-29T14:45:11.634Z,85
2016-10-29T14:45:37.172Z,120
2016-10-29T14:46:02.734Z,95
2016-10-29T14:46:28.324Z,115
2016-10-29T14:46:53.867Z,110
2016-10-29T14:47:19.401Z,100
2016-10-29T14:47:44.989Z,85
2016-10-29T14:48:10.558Z,75
2016-10-29T14:48:36.119Z,105
2016-10-29T14:49:01.694Z,110
2016-10-29T14:49:27.278Z,110
2016-10-29T14:49:52.851Z,100
2016-10-29T14:50:18.433Z,115
2016-10-29T14:50:44.030Z,115
2016-10-29T14:51:09.684Z,115
2016-10-29T14:51:35.267Z,115
2016-10-29T14:52:00.826Z,115
2016-10-29T14:52:26.455Z,110
2016-10-29T14:52:52.129Z,100
2016-10-29T14:53:17.800Z,100
2016-10-29T14:53:43.489Z,105
2016-10-29T14:54:09.153Z,105
2016-10-29T14:54:34.873Z,105
2016-10-29T14:55:00.381Z,105
2016-10-29T14:55:25.931Z,105
2016-10-29T14:55:51.476Z,105
2016-10-29T14:56:17.097Z,105
2016-10-29T14:56:42.646Z,105
2016-10-29T14:57:08.283Z,105
2016-10-29T14:57:33.941Z,105
2016-10-29T14:57:59.510Z,105
2016-10-29T14:58:25.066Z,105
2016-10-29T14:58:50.722Z,105
2016-10-29T14:59:16.284Z,105
2016-10-29T14:59:41.840Z,105
2016-10-29T15:00:07.413Z,105
2016-10-29T15:00:33.011Z,100
2016-10-29T15:00:58.573Z,100
2016-10-29T15:01:24.148Z,95
2016-10-29T15:01:49.715Z,95
2016-10-29T15:02:15.280Z,90
2016-10-29T15:02:40.830Z,90
2016-10-29T15:03:06.386Z,90
2016-10-29T15:03:31.999Z,85
2016-10-29T15:03:57.664Z,85
2016-10-29T15:04:23.241Z,85
2016-10-29T15:04:48.803Z,80
2016-10-29T15:05:14.391Z,80
2016-10-29T15:05:39.965Z,80
2016-10-29T15:06:05.530Z,75
2016-10-29T15:06:31.080Z,80
2016-10-29T15:06:56.686Z,80
2016-10-29T15:07:22.248Z,75
2016-10-29T15:07:47.845Z,70
2016-10-29T15:08:13.470Z,60
2016-10-29T15:08:39.038Z,60
2016-10-29T15:09:04.667Z,60
2016-10-29T15:09:30.307Z,55
2016-10-29T15:09:55.871Z,55
2016-10-29T15:10:21.418Z,45
2016-10-29T15:10:47.005Z,50
2016-10-29T15:11:12.599Z,45
2016-10-29T15:11:38.363Z,45
2016-10-29T15:12:03.918Z,40
2016-10-29T15:12:29.463Z,40
2016-10-29T15:12:55.025Z,40
2016-10-29T15:13:20.587Z,40
2016-10-29T15:13:46.159Z,40
2016-10-29T15:14:11.719Z,40
2016-10-29T15:14:37.306Z,40
2016-10-29T15:15:02.970Z,40
2016-10-29T15:15:28.558Z,35
2016-10-29T15:15:54.111Z,35
2016-10-29T15:16:19.700Z,35
2016-10-29T15:16:45.271Z,35
2016-10-29T15:17:10.837Z,35
2016-10-29T15:17:36.418Z,35
2016-10-29T15:18:02.010Z,30
2016-10-29T15:18:27.807Z,30
2016-10-29T15:18:53.469Z,30
2016-10-29T15:19:19.098Z,30
2016-10-29T15:19:44.632Z,30
2016-10-29T15:20:10.336Z,30
2016-10-29T15:20:35.916Z,30
2016-10-29T15:21:01.478Z,25
2016-10-29T15:21:27.057Z,25
2016-10-29T15:21:52.630Z,25
2016-10-29T15:22:18.197Z,25
2016-10-29T15:22:43.761Z,25
2016-10-29T15:23:09.319Z,25
2016-10-29T15:23:34.876Z,25
2016-10-29T15:24:00.505Z,25
2016-10-29T15:24:26.115Z,20
2016-10-29T15:24:51.702Z,20
2016-10-29T15:25:17.287Z,20
2016-10-29T15:25:42.867Z,20
2016-10-29T15:26:08.412Z,15
2016-10-29T15:26:33.967Z,15
2016-10-29T15:27:00.115Z,20
2016-10-29T15:27:25.684Z,15
2016-10-29T15:27:51.226Z,15
2016-10-29T15:28:16.780Z,15
2016-10-29T15:28:42.412Z,15
2016-10-29T15:29:07.988Z,15
2016-10-29T15:29:33.548Z,15
2016-10-29T15:29:59.130Z,15
2016-10-29T15:30:24.840Z,15
2016-10-29T15:30:50.431Z,15
2016-10-29T15:31:16.012Z,10
2016-10-29T15:31:41.591Z,10
2016-10-29T15:32:07.157Z,10
2016-10-29T15:32:32.714Z,10
2016-10-29T15:32:58.391Z,10
2016-10-29T15:33:23.970Z,10
2016-10-29T15:33:49.533Z,10
2016-10-29T15:34:15.072Z,10
2016-10-29T15:34:40.689Z,10
2016-10-29T15:35:06.270Z,10
2016-10-29T15:35:31.824Z,10
2016-10-29T15:35:57.420Z,10
2016-10-29T15:36:23.005Z,10
2016-10-29T15:36:48.569Z,10
2016-10-29T15:37:14.150Z,10
2016-10-29T15:37:39.696Z,10
2016-10-29T15:38:48.015Z,10
2016-10-29T15:39:13.670Z,10
2016-10-29T15:39:39.225Z,10
2016-10-29T15:40:04.786Z,5
2016-10-29T15:40:30.431Z,5
2016-10-29T15:40:56.009Z,5
2016-10-29T15:41:21.559Z,5
2016-10-29T15:41:47.113Z,5
2016-10-29T15:42:12.695Z,5
2016-10-29T15:42:38.254Z,5
2016-10-29T15:43:03.827Z,5
2016-10-29T15:43:29.712Z,5
2016-10-29T15:43:56.625Z,5
2016-10-29T15:44:22.190Z,5
2016-10-29T15:44:47.767Z,5
2016-10-29T15:45:13.496Z,5
2016-10-29T15:45:39.146Z,5
2016-10-29T15:46:04.694Z,5
2016-10-29T15:46:30.276Z,5
2016-10-29T15:46:55.857Z,5
2016-10-29T15:47:21.723Z,5
2016-10-29T15:47:47.175Z,5
2016-10-29T15:48:12.806Z,5
2016-10-29T15:48:38.356Z,5
2016-10-29T15:49:03.908Z,5
2016-10-29T15:49:29.474Z,5
2016-10-29T15:50:48.040Z,5
2016-10-29T15:51:13.596Z,5
2016-10-29T15:51:39.167Z,0
2016-10-29T15:52:04.878Z,0
2016-10-29T15:52:31.669Z,0
2016-10-29T15:52:57.275Z,0
2016-10-29T15:53:22.911Z,0
2016-10-29T15:53:48.693Z,0
2016-10-29T15:54:14.277Z,0
2016-10-29T15:54:39.819Z,0
2016-10-29T15:55:05.380Z,0
2016-10-29T15:55:30.949Z,0
2016-10-29T15:55:56.535Z,0
2016-10-29T15:56:22.098Z,0
2016-10-29T15:56:47.663Z,0
2016-10-29T15:57:13.213Z,0
2016-10-29T15:57:38.785Z,0
2016-10-29T15:58:04.337Z,0
2016-10-29T15:58:29.903Z,0
2016-10-29T15:58:55.468Z,0
2016-10-29T15:59:21.038Z,0
2016-10-29T15:59:46.626Z,0
2016-10-29T16:00:12.256Z,0
2016-10-29T16:00:37.830Z,0
2016-10-29T16:01:03.394Z,0
2016-10-29T16:01:28.983Z,0
2016-10-29T16:01:54.548Z,0
2016-10-29T16:02:20.100Z,0
2016-10-29T16:02:45.689Z,0
2016-10-29T16:03:11.311Z,0
2016-10-29T16:03:36.861Z,0
2016-10-29T16:04:02.436Z,0
2016-10-29T16:04:27.999Z,0
2016-10-29T16:04:53.519Z,0
2016-10-29T16:05:19.156Z,0
2016-10-29T16:05:44.722Z,0
2016-10-29T16:06:10.298Z,0
2016-10-29T16:06:35.879Z,0
2016-10-29T16:07:01.445Z,0
2016-10-29T16:07:27.081Z,0
2016-10-29T16:07:52.586Z,0
2016-10-29T16:08:18.162Z,0
2016-10-29T16:08:43.922Z,0
2016-10-29T16:09:09.517Z,0
2016-10-29T16:09:35.064Z,0
2016-10-29T16:10:00.602Z,0
2016-10-29T16:10:26.268Z,0
2016-10-29T16:10:51.847Z,0
2016-10-29T16:11:17.420Z,0
2016-10-29T16:11:43.043Z,0
2016-10-29T16:12:08.929Z,0
2016-10-29T16:12:34.478Z,0
2016-10-29T16:13:00.070Z,0
2016-10-29T16:13:26.662Z,0
2016-10-29T16:13:57.408Z,0
2016-10-29T16:14:25.666Z,0
2016-10-29T16:14:54.796Z,0
2016-10-29T16:15:22.366Z,0
2016-10-29T16:16:02.834Z,0
2016-10-29T16:16:30.095Z,0
2016-10-29T16:16:55.912Z,0
2016-10-29T16:17:21.553Z,0
2016-10-29T16:17:48.398Z,0
2016-10-29T16:18:15.230Z,0
2016-10-29T16:18:41.812Z,0
2016-10-29T16:19:07.387Z,0
2016-10-29T16:19:33.242Z,0
2016-10-29T16:19:58.706Z,0
2016-10-29T16:20:24.321Z,0
2016-10-29T16:20:49.919Z,0
2016-10-29T16:21:16.328Z,0
2016-10-29T16:21:44.982Z,0
2016-10-29T16:22:11.486Z,0
2016-10-29T16:22:37.059Z,0
2016-10-29T16:23:03.049Z,0
2016-10-29T16:23:28.607Z,0
2016-10-29T16:23:55.109Z,0
2016-10-29T16:24:22.690Z,0
2016-10-29T16:24:52.120Z,0
2016-10-29T16:25:20.987Z,0
2016-10-29T16:25:47.843Z,0
2016-10-29T16:26:16.624Z,0
2016-10-29T16:26:43.600Z,0
2016-10-29T16:27:09.887Z,0